Time;durP1;ratioP1;P1;durP2;ratioP2;P2;SDS_P1;SDS_P2;PMS_P1;PMS_P2;Temp;Humidity;BMP_temperature;BMP_pressure;BME280_temperature;BME280_humidity;BME280_pressure;Samples;Min_cycle;Max_cycle;Signal;HPM_P1;HPM_P2
2022/12/01 00:02:01;;;;;;;4.93;0.80;;;;;;;;;;10372877;28;20033;-75
2022/12/01 00:07:01;;;;;;;1.17;0.70;;;;;;;;;;10418259;28;20033;-79
2022/12/01 00:12:02;;;;;;;3.33;1.30;;;;;;;;;;10377480;28;20415;-74
2022/12/01 00:17:03;;;;;;;2.67;0.73;;;;;;;;;;10389668;28;20026;-80
2022/12/01 00:22:05;;;;;;;1.40;0.65;;;;;;;;;;10389059;28;20033;-81
2022/12/01 00:27:05;;;;;;;1.10;0.80;;;;;;;;;;10371873;28;20048;-80
2022/12/01 00:32:05;;;;;;;0.95;0.70;;;;;;;;;;10389312;28;20600;-80
2022/12/01 00:37:07;;;;;;;0.93;0.80;;;;;;;;;;10373411;28;20032;-71
2022/12/01 00:42:08;;;;;;;0.85;0.60;;;;;;;;;;10416624;28;20038;-72
2022/12/01 00:47:09;;;;;;;0.65;0.65;;;;;;;;;;10417834;28;20061;-75
2022/12/01 00:52:10;;;;;;;0.82;0.65;;;;;;;;;;10393256;28;20034;-71
2022/12/01 00:57:11;;;;;;;1.65;0.60;;;;;;;;;;10353597;28;20056;-78
2022/12/01 01:02:20;;;;;;;0.93;0.50;;;;;;;;;;10362403;28;20121;-80
2022/12/01 01:07:24;;;;;;;0.85;0.73;;;;;;;;;;10405673;28;20511;-81
2022/12/01 01:12:26;;;;;;;1.90;0.52;;;;;;;;;;10386358;28;20030;-76
2022/12/01 01:17:26;;;;;;;1.27;0.60;;;;;;;;;;10391149;28;20030;-80
2022/12/01 01:22:28;;;;;;;1.17;0.75;;;;;;;;;;10368156;28;20037;-80
2022/12/01 01:27:42;;;;;;;2.40;0.93;;;;;;;;;;10388752;28;20033;-82
2022/12/01 01:32:42;;;;;;;1.60;0.93;;;;;;;;;;10404723;28;20037;-76
2022/12/01 01:37:46;;;;;;;1.60;0.88;;;;;;;;;;10411583;28;20044;-81
2022/12/01 01:42:47;;;;;;;0.52;0.50;;;;;;;;;;10371148;28;20444;-79
2022/12/01 01:47:48;;;;;;;0.80;0.50;;;;;;;;;;10348165;28;20021;-81
2022/12/01 01:52:52;;;;;;;1.20;0.50;;;;;;;;;;10369482;28;20022;-77
2022/12/01 01:57:52;;;;;;;2.88;0.60;;;;;;;;;;10398777;28;20053;-79
2022/12/01 02:02:56;;;;;;;0.88;0.40;;;;;;;;;;10392663;28;20124;-83
2022/12/01 02:07:59;;;;;;;1.60;1.02;;;;;;;;;;10410845;28;20029;-81
2022/12/01 02:13:05;;;;;;;1.42;0.43;;;;;;;;;;10394981;28;20025;-76
2022/12/01 02:18:20;;;;;;;1.75;0.70;;;;;;;;;;10394219;28;20033;-80
2022/12/01 02:23:26;;;;;;;0.88;0.43;;;;;;;;;;10351863;28;20030;-83
2022/12/01 02:28:46;;;;;;;0.40;0.40;;;;;;;;;;10368706;28;20021;-82
2022/12/01 02:33:57;;;;;;;0.60;0.50;;;;;;;;;;10424321;28;20049;-81
2022/12/01 02:39:17;;;;;;;0.30;0.30;;;;;;;;;;10434993;28;20017;-79
2022/12/01 02:44:20;;;;;;;1.52;1.13;;;;;;;;;;10432602;28;20470;-80
2022/12/01 02:49:27;;;;;;;1.23;0.50;;;;;;;;;;10450635;28;20084;-72
2022/12/01 02:54:30;;;;;;;0.70;0.40;;;;;;;;;;10445750;28;20036;-72
2022/12/01 02:59:30;;;;;;;4.03;0.40;;;;;;;;;;10433884;28;20017;-78
2022/12/01 03:04:35;;;;;;;1.65;0.40;;;;;;;;;;10451890;28;20036;-79
2022/12/01 03:09:50;;;;;;;0.80;0.60;;;;;;;;;;10440953;28;20094;-78
2022/12/01 03:15:02;;;;;;;0.43;0.43;;;;;;;;;;10433608;28;20498;-79
2022/12/01 03:20:25;;;;;;;0.68;0.30;;;;;;;;;;10448884;28;20051;-77
2022/12/01 03:25:27;;;;;;;0.52;0.52;;;;;;;;;;10418326;28;20025;-81
2022/12/01 03:30:30;;;;;;;0.43;0.20;;;;;;;;;;10442625;28;20048;-80
2022/12/01 03:35:35;;;;;;;0.47;0.47;;;;;;;;;;10388177;28;20602;-74
2022/12/01 03:40:36;;;;;;;0.80;0.43;;;;;;;;;;10406308;28;20060;-75
2022/12/01 03:45:46;;;;;;;0.38;0.30;;;;;;;;;;10387488;28;20032;-76
2022/12/01 03:50:58;;;;;;;0.82;0.70;;;;;;;;;;10387918;28;20017;-78
2022/12/01 03:56:01;;;;;;;0.98;0.68;;;;;;;;;;10388711;28;20022;-77
2022/12/01 04:01:02;;;;;;;1.45;0.60;;;;;;;;;;10386957;28;20089;-76
2022/12/01 04:06:02;;;;;;;1.85;0.98;;;;;;;;;;10387922;28;20507;-80
2022/12/01 04:12:28;;;;;;;1.45;0.70;;;;;;;;;;10374603;28;20041;-80
2022/12/01 04:16:23;;;;;;;0.43;0.40;;;;;;;;;;10389685;28;20172;-79
2022/12/01 04:21:24;;;;;;;1.85;0.75;;;;;;;;;;10373162;28;20021;-80
2022/12/01 04:26:24;;;;;;;1.20;0.63;;;;;;;;;;10372973;28;20027;-80
2022/12/01 04:31:24;;;;;;;0.40;0.40;;;;;;;;;;10405660;28;20423;-81
2022/12/01 04:36:25;;;;;;;1.02;0.77;;;;;;;;;;10359466;28;20018;-78
2022/12/01 04:41:26;;;;;;;0.63;0.50;;;;;;;;;;10364255;28;20026;-83
2022/12/01 04:51:58;;;;;;;10.85;5.35;;;;;;;;;;10400110;28;20032;-79
2022/12/01 04:56:58;;;;;;;1.80;1.00;;;;;;;;;;10368904;28;20025;-73
2022/12/01 05:01:59;;;;;;;1.47;0.73;;;;;;;;;;10374493;28;20048;-71
2022/12/01 05:06:59;;;;;;;2.05;0.90;;;;;;;;;;10400755;28;20371;-71
2022/12/01 05:12:00;;;;;;;0.57;0.47;;;;;;;;;;10367743;28;20554;-74
2022/12/01 05:17:01;;;;;;;5.35;1.10;;;;;;;;;;10347632;28;20389;-76
2022/12/01 05:22:02;;;;;;;0.98;0.60;;;;;;;;;;10364775;28;20074;-82
2022/12/01 05:27:02;;;;;;;1.15;0.55;;;;;;;;;;10367926;28;20568;-78
2022/12/01 05:32:03;;;;;;;1.92;0.90;;;;;;;;;;10376167;28;20053;-77
2022/12/01 05:37:05;;;;;;;1.90;1.27;;;;;;;;;;10388417;28;20029;-81
2022/12/01 05:42:05;;;;;;;1.05;0.80;;;;;;;;;;10372849;28;20021;-78
2022/12/01 05:47:05;;;;;;;0.93;0.88;;;;;;;;;;10386606;28;20501;-77
2022/12/01 05:52:07;;;;;;;1.30;0.57;;;;;;;;;;10385715;28;20093;-73
2022/12/01 05:57:07;;;;;;;1.25;1.15;;;;;;;;;;10402867;28;20030;-79
2022/12/01 06:02:08;;;;;;;1.73;0.80;;;;;;;;;;10363745;28;20196;-75
2022/12/01 06:07:08;;;;;;;0.60;0.60;;;;;;;;;;10391804;28;20260;-78
2022/12/01 06:12:08;;;;;;;0.85;0.52;;;;;;;;;;10377282;28;20038;-79
2022/12/01 06:17:08;;;;;;;0.68;0.50;;;;;;;;;;10377378;28;20022;-82
2022/12/01 06:22:10;;;;;;;2.20;0.83;;;;;;;;;;10356730;28;20095;-79
2022/12/01 06:27:14;;;;;;;0.70;0.70;;;;;;;;;;10371760;28;20095;-81
2022/12/01 06:32:15;;;;;;;1.42;0.93;;;;;;;;;;10381801;28;20057;-80
2022/12/01 06:37:15;;;;;;;1.48;0.55;;;;;;;;;;10381639;28;20102;-77
2022/12/01 06:42:20;;;;;;;0.93;0.70;;;;;;;;;;10356634;28;20022;-76
2022/12/01 06:47:21;;;;;;;1.88;1.20;;;;;;;;;;10349634;28;20021;-78
2022/12/01 06:52:25;;;;;;;2.35;1.20;;;;;;;;;;10364619;28;20464;-76
2022/12/01 06:57:35;;;;;;;2.33;1.25;;;;;;;;;;10351282;28;20034;-78
2022/12/01 07:02:36;;;;;;;4.72;1.30;;;;;;;;;;10396027;28;20022;-80
2022/12/01 07:07:36;;;;;;;4.32;1.63;;;;;;;;;;10386382;28;20029;-77
2022/12/01 07:12:37;;;;;;;1.63;1.10;;;;;;;;;;10387524;28;20463;-73
2022/12/01 07:17:37;;;;;;;3.40;1.40;;;;;;;;;;10405323;28;20175;-72
2022/12/01 07:22:38;;;;;;;1.45;0.88;;;;;;;;;;10421454;28;20033;-77
2022/12/01 07:27:43;;;;;;;1.60;0.90;;;;;;;;;;10409629;28;20057;-82
2022/12/01 07:32:43;;;;;;;1.85;0.93;;;;;;;;;;10382422;28;20118;-76
2022/12/01 07:37:44;;;;;;;5.60;0.90;;;;;;;;;;10394684;28;20100;-77
2022/12/01 07:42:48;;;;;;;0.65;0.50;;;;;;;;;;10365787;28;20018;-83
2022/12/01 07:47:51;;;;;;;1.45;0.70;;;;;;;;;;10386806;28;20029;-78
2022/12/01 07:52:52;;;;;;;2.47;1.38;;;;;;;;;;10364554;28;20098;-77
2022/12/01 07:57:53;;;;;;;0.80;0.80;;;;;;;;;;10401833;28;20026;-84
2022/12/01 08:02:53;;;;;;;1.52;1.30;;;;;;;;;;10376773;28;20454;-75
2022/12/01 08:07:53;;;;;;;4.90;0.98;;;;;;;;;;10376839;28;20033;-82
2022/12/01 08:12:54;;;;;;;1.52;1.30;;;;;;;;;;10378657;28;20025;-74
2022/12/01 08:17:56;;;;;;;2.13;1.50;;;;;;;;;;10394395;28;20040;-82
2022/12/01 08:22:59;;;;;;;2.45;1.55;;;;;;;;;;10373614;28;20029;-78
2022/12/01 08:28:02;;;;;;;2.38;1.50;;;;;;;;;;10390806;28;20120;-82
2022/12/01 08:33:10;;;;;;;3.25;1.60;;;;;;;;;;10397208;28;20129;-79
2022/12/01 08:38:11;;;;;;;4.63;1.17;;;;;;;;;;10387266;28;20157;-80
2022/12/01 08:43:12;;;;;;;2.80;1.70;;;;;;;;;;10366957;28;20041;-81
2022/12/01 08:48:13;;;;;;;1.73;1.20;;;;;;;;;;10391351;28;20057;-77
2022/12/01 08:53:13;;;;;;;1.42;1.20;;;;;;;;;;10377066;28;20120;-81
2022/12/01 08:58:15;;;;;;;5.23;1.70;;;;;;;;;;10400448;28;20044;-81
2022/12/01 09:03:15;;;;;;;1.50;1.05;;;;;;;;;;10397767;28;20035;-81
2022/12/01 09:08:33;;;;;;;2.47;1.42;;;;;;;;;;10404483;28;20029;-80
2022/12/01 09:13:36;;;;;;;4.47;1.45;;;;;;;;;;10432113;22;20051;-79
2022/12/01 09:18:39;;;;;;;2.22;1.27;;;;;;;;;;10455677;22;20500;-71
2022/12/01 09:23:41;;;;;;;1.55;1.23;;;;;;;;;;10408088;28;20025;-71
2022/12/01 09:28:42;;;;;;;1.88;0.82;;;;;;;;;;10402113;28;20025;-76
2022/12/01 09:33:46;;;;;;;5.40;2.30;;;;;;;;;;10410229;28;20033;-75
2022/12/01 09:38:52;;;;;;;3.42;2.58;;;;;;;;;;10384629;28;20041;-80
2022/12/01 09:43:57;;;;;;;2.33;1.47;;;;;;;;;;10385929;28;20565;-83
2022/12/01 09:49:01;;;;;;;2.70;1.75;;;;;;;;;;10390489;28;20042;-79
2022/12/01 09:54:01;;;;;;;2.05;1.17;;;;;;;;;;10390156;28;20033;-80
2022/12/01 09:59:06;;;;;;;2.83;1.73;;;;;;;;;;10391814;28;20022;-80
2022/12/01 10:04:11;;;;;;;3.50;1.10;;;;;;;;;;10365375;28;20092;-80
2022/12/01 10:09:24;;;;;;;2.63;1.17;;;;;;;;;;10380222;28;20048;-78
2022/12/01 10:14:27;;;;;;;1.80;1.02;;;;;;;;;;10369925;28;20025;-77
2022/12/01 10:19:34;;;;;;;3.65;1.70;;;;;;;;;;10378994;28;20062;-79
2022/12/01 10:24:38;;;;;;;2.63;1.42;;;;;;;;;;10374183;28;20136;-79
2022/12/01 10:29:44;;;;;;;4.38;1.38;;;;;;;;;;10398392;28;20491;-79
2022/12/01 10:34:46;;;;;;;1.92;1.08;;;;;;;;;;10405909;28;20040;-78
2022/12/01 10:39:48;;;;;;;3.08;1.52;;;;;;;;;;10383954;28;20022;-82
2022/12/01 10:44:49;;;;;;;2.30;1.40;;;;;;;;;;10380753;28;20606;-75
2022/12/01 10:49:51;;;;;;;3.22;1.40;;;;;;;;;;10378093;28;20034;-80
2022/12/01 10:54:52;;;;;;;3.00;1.55;;;;;;;;;;10396965;28;20030;-79
2022/12/01 11:00:05;;;;;;;1.45;1.05;;;;;;;;;;10396828;28;20022;-80
2022/12/01 11:05:18;;;;;;;1.58;1.20;;;;;;;;;;10378887;28;20048;-78
2022/12/01 11:10:23;;;;;;;3.05;1.58;;;;;;;;;;10381756;28;20037;-76
2022/12/01 11:15:28;;;;;;;2.38;1.23;;;;;;;;;;10383278;28;20025;-80
2022/12/01 11:20:38;;;;;;;0.95;0.80;;;;;;;;;;10350138;28;20054;-81
2022/12/01 11:25:39;;;;;;;0.75;0.68;;;;;;;;;;10341910;28;20384;-76
2022/12/01 11:30:39;;;;;;;2.90;1.05;;;;;;;;;;10358987;28;20026;-74
2022/12/01 11:35:45;;;;;;;2.20;1.60;;;;;;;;;;10377845;28;20057;-72
2022/12/01 11:40:51;;;;;;;1.77;1.20;;;;;;;;;;10374044;28;20033;-72
2022/12/01 11:45:54;;;;;;;3.97;1.58;;;;;;;;;;10367870;28;20040;-74
2022/12/01 11:51:10;;;;;;;7.70;1.90;;;;;;;;;;10358968;28;20125;-81
2022/12/01 11:56:18;;;;;;;1.60;0.82;;;;;;;;;;10355458;28;20050;-80
2022/12/01 12:01:39;;;;;;;6.15;1.60;;;;;;;;;;10361154;28;20238;-81
2022/12/01 12:07:07;;;;;;;3.38;1.52;;;;;;;;;;10346082;28;20471;-81
2022/12/01 12:12:31;;;;;;;2.50;1.95;;;;;;;;;;10351952;28;20030;-74
2022/12/01 12:17:50;;;;;;;4.22;1.58;;;;;;;;;;10348998;28;20560;-76
2022/12/01 12:22:58;;;;;;;3.22;1.55;;;;;;;;;;10373667;28;20348;-82
2022/12/01 12:28:14;;;;;;;3.33;2.67;;;;;;;;;;10379285;28;20059;-81
2022/12/01 12:33:23;;;;;;;1.85;1.70;;;;;;;;;;10401990;28;20854;-84
2022/12/01 12:38:43;;;;;;;2.08;1.35;;;;;;;;;;10376714;28;20038;-80
2022/12/01 12:44:03;;;;;;;4.93;1.80;;;;;;;;;;10378839;28;20030;-79
2022/12/01 12:49:14;;;;;;;4.13;1.55;;;;;;;;;;10392871;28;20033;-77
2022/12/01 12:54:33;;;;;;;3.45;1.65;;;;;;;;;;10382825;28;20029;-78
2022/12/01 12:59:38;;;;;;;6.70;1.33;;;;;;;;;;10370169;28;20033;-78
2022/12/01 13:04:39;;;;;;;4.53;2.13;;;;;;;;;;10383513;28;20030;-79
2022/12/01 13:09:45;;;;;;;3.95;1.77;;;;;;;;;;10384103;28;20040;-82
2022/12/01 13:14:51;;;;;;;4.20;1.80;;;;;;;;;;10386934;28;20017;-80
2022/12/01 13:19:55;;;;;;;1.98;1.27;;;;;;;;;;10370314;28;20038;-83
2022/12/01 13:24:55;;;;;;;2.00;1.67;;;;;;;;;;10364900;28;20018;-75
2022/12/01 13:29:56;;;;;;;3.08;1.50;;;;;;;;;;10368022;28;20475;-81
2022/12/01 13:35:02;;;;;;;4.40;1.55;;;;;;;;;;10371173;28;20043;-76
2022/12/01 13:40:15;;;;;;;2.38;0.77;;;;;;;;;;10374874;28;20026;-74
2022/12/01 13:45:17;;;;;;;1.85;1.30;;;;;;;;;;10400412;28;20033;-72
2022/12/01 13:50:44;;;;;;;3.40;1.80;;;;;;;;;;10410450;28;20033;-74
2022/12/01 13:56:23;;;;;;;4.03;1.83;;;;;;;;;;10397545;28;20053;-78
2022/12/01 14:01:25;;;;;;;2.67;1.45;;;;;;;;;;10243616;28;20126;-77
2022/12/01 14:06:34;;;;;;;3.15;2.15;;;;;;;;;;10344098;28;20509;-81
2022/12/01 14:11:35;;;;;;;5.38;1.10;;;;;;;;;;10385569;28;20761;-80
2022/12/01 14:16:52;;;;;;;5.38;1.48;;;;;;;;;;10391945;28;20035;-83
2022/12/01 14:21:52;;;;;;;4.20;1.60;;;;;;;;;;10380001;28;20470;-80
2022/12/01 14:26:53;;;;;;;2.08;1.38;;;;;;;;;;10368794;28;20040;-78
2022/12/01 14:31:53;;;;;;;2.97;2.08;;;;;;;;;;10381551;28;20064;-81
2022/12/01 14:37:05;;;;;;;3.63;1.83;;;;;;;;;;10387696;28;20053;-81
2022/12/01 14:47:59;;;;;;;3.83;1.60;;;;;;;;;;10414319;28;20072;-80
2022/12/01 14:53:19;;;;;;;2.15;1.30;;;;;;;;;;10383936;28;20125;-82
2022/12/01 14:58:21;;;;;;;4.60;1.00;;;;;;;;;;10368998;28;20025;-79
2022/12/01 15:03:22;;;;;;;2.53;1.50;;;;;;;;;;10378330;28;20483;-80
2022/12/01 15:08:24;;;;;;;1.45;0.95;;;;;;;;;;10376858;28;20087;-80
2022/12/01 15:13:29;;;;;;;1.88;1.35;;;;;;;;;;10382548;28;20128;-76
2022/12/01 15:18:31;;;;;;;2.97;0.95;;;;;;;;;;10372571;28;20574;-79
2022/12/01 15:23:33;;;;;;;2.22;1.27;;;;;;;;;;10373161;28;20414;-83
2022/12/01 15:28:34;;;;;;;2.63;1.23;;;;;;;;;;10379458;28;20030;-81
2022/12/01 15:33:36;;;;;;;1.85;1.00;;;;;;;;;;10407545;28;20040;-78
2022/12/01 15:38:37;;;;;;;6.15;1.42;;;;;;;;;;10360470;28;20030;-76
2022/12/01 15:43:38;;;;;;;2.90;1.48;;;;;;;;;;10373114;28;20466;-79
2022/12/01 15:48:42;;;;;;;2.58;1.60;;;;;;;;;;10406526;28;20566;-79
2022/12/01 15:54:02;;;;;;;3.30;1.75;;;;;;;;;;10377857;28;20083;-73
2022/12/01 15:59:12;;;;;;;3.03;1.50;;;;;;;;;;10407307;28;20026;-75
2022/12/01 16:04:20;;;;;;;2.13;1.52;;;;;;;;;;10393715;28;20034;-76
2022/12/01 16:09:21;;;;;;;;;;;;;;;;;;10388698;28;20048;-77
2022/12/01 16:14:23;;;;;;;3.97;1.70;;;;;;;;;;10426704;22;20031;-74
2022/12/01 16:19:25;;;;;;;5.25;2.17;;;;;;;;;;10379445;28;20091;-77
2022/12/01 16:24:35;;;;;;;2.08;1.45;;;;;;;;;;10386148;28;20033;-73
2022/12/01 16:29:54;;;;;;;2.80;1.48;;;;;;;;;;10389029;28;20123;-77
2022/12/01 16:34:56;;;;;;;2.00;1.27;;;;;;;;;;10405976;28;20102;-80
2022/12/01 16:39:57;;;;;;;2.83;1.45;;;;;;;;;;10387145;28;20041;-79
2022/12/01 16:44:57;;;;;;;1.00;0.90;;;;;;;;;;10394710;28;20490;-74
2022/12/01 16:49:58;;;;;;;5.45;1.13;;;;;;;;;;10390751;28;20029;-81
2022/12/01 16:54:58;;;;;;;1.73;0.77;;;;;;;;;;10389798;28;20040;-77
2022/12/01 17:00:00;;;;;;;1.33;1.00;;;;;;;;;;10378421;28;20040;-81
2022/12/01 17:05:00;;;;;;;3.40;0.85;;;;;;;;;;10379104;28;20032;-80
2022/12/01 17:10:02;;;;;;;0.55;0.55;;;;;;;;;;10383177;28;20966;-81
2022/12/01 17:15:02;;;;;;;1.75;1.20;;;;;;;;;;10386818;28;20111;-80
2022/12/01 17:20:05;;;;;;;2.85;1.15;;;;;;;;;;10405264;28;20025;-83
2022/12/01 17:25:07;;;;;;;5.90;1.25;;;;;;;;;;10407365;28;20065;-76
2022/12/01 17:30:08;;;;;;;1.75;1.17;;;;;;;;;;10383405;28;20033;-77
2022/12/01 17:35:11;;;;;;;0.77;0.77;;;;;;;;;;10400796;28;20045;-77
2022/12/01 17:40:17;;;;;;;1.48;1.10;;;;;;;;;;10406148;28;20052;-78
2022/12/01 17:45:17;;;;;;;1.67;1.00;;;;;;;;;;10391395;28;20045;-78
2022/12/01 17:50:18;;;;;;;3.50;1.38;;;;;;;;;;10390986;28;20064;-76
2022/12/01 17:55:18;;;;;;;4.27;1.13;;;;;;;;;;10368116;28;20030;-73
2022/12/01 18:00:19;;;;;;;2.37;0.97;;;;;;;;;;10384597;28;20052;-74
2022/12/01 18:05:19;;;;;;;3.22;1.95;;;;;;;;;;10395445;28;20064;-72
2022/12/01 18:10:20;;;;;;;5.03;1.70;;;;;;;;;;10403444;28;20030;-77
2022/12/01 18:15:20;;;;;;;4.65;2.00;;;;;;;;;;10360030;28;20045;-77
2022/12/01 18:20:20;;;;;;;5.67;2.13;;;;;;;;;;10361346;28;20022;-81
2022/12/01 18:25:21;;;;;;;3.58;1.85;;;;;;;;;;10367086;28;20487;-77
2022/12/01 18:30:28;;;;;;;2.13;1.20;;;;;;;;;;10379923;28;20420;-78
2022/12/01 18:35:28;;;;;;;4.83;2.03;;;;;;;;;;10384434;28;20108;-82
2022/12/01 18:40:29;;;;;;;4.50;2.95;;;;;;;;;;10386513;28;20017;-80
2022/12/01 18:45:29;;;;;;;3.23;2.23;;;;;;;;;;10401250;28;20317;-78
2022/12/01 18:50:29;;;;;;;3.38;1.90;;;;;;;;;;10383982;28;20021;-80
2022/12/01 18:55:30;;;;;;;3.85;1.65;;;;;;;;;;10401545;28;20025;-77
2022/12/01 19:00:30;;;;;;;2.78;1.33;;;;;;;;;;10386436;28;20037;-78
2022/12/01 19:05:32;;;;;;;2.55;1.23;;;;;;;;;;10403215;28;20029;-78
2022/12/01 19:10:38;;;;;;;1.70;1.27;;;;;;;;;;10390754;28;20447;-78
2022/12/01 19:15:38;;;;;;;1.38;1.10;;;;;;;;;;10404359;28;20132;-78
2022/12/01 19:20:39;;;;;;;1.80;1.07;;;;;;;;;;10387087;28;20033;-76
2022/12/01 19:25:40;;;;;;;2.33;1.48;;;;;;;;;;10399871;28;20112;-79
2022/12/01 19:30:40;;;;;;;2.60;1.42;;;;;;;;;;10398904;28;20029;-78
2022/12/01 19:35:41;;;;;;;2.85;1.70;;;;;;;;;;10382248;28;20025;-75
2022/12/01 19:40:41;;;;;;;4.30;2.10;;;;;;;;;;10401066;28;20025;-79
2022/12/01 19:45:42;;;;;;;3.53;2.20;;;;;;;;;;10383272;28;20486;-83
2022/12/01 19:50:43;;;;;;;6.82;2.08;;;;;;;;;;10383638;28;20025;-82
2022/12/01 19:55:43;;;;;;;3.73;1.50;;;;;;;;;;10355153;28;20064;-76
2022/12/01 20:00:45;;;;;;;16.02;2.65;;;;;;;;;;10386179;28;20030;-77
2022/12/01 20:05:45;;;;;;;5.05;1.95;;;;;;;;;;10412593;28;20021;-76
2022/12/01 20:10:47;;;;;;;3.80;2.30;;;;;;;;;;10417623;28;20093;-73
2022/12/01 20:15:47;;;;;;;3.75;2.20;;;;;;;;;;10393017;28;20037;-82
2022/12/01 20:20:48;;;;;;;2.92;1.52;;;;;;;;;;10383307;28;20059;-77
2022/12/01 20:25:48;;;;;;;2.70;1.65;;;;;;;;;;10389404;28;20484;-82
2022/12/01 20:30:49;;;;;;;4.80;2.28;;;;;;;;;;10384300;28;20036;-82
2022/12/01 20:35:50;;;;;;;2.05;1.65;;;;;;;;;;10401793;28;20078;-79
2022/12/01 20:40:51;;;;;;;4.30;1.88;;;;;;;;;;10380303;28;20029;-74
2022/12/01 20:45:51;;;;;;;9.07;1.95;;;;;;;;;;10382846;28;20017;-76
2022/12/01 20:50:52;;;;;;;2.55;1.67;;;;;;;;;;10379535;28;20132;-75
2022/12/01 20:55:56;;;;;;;6.40;2.73;;;;;;;;;;10381935;28;20546;-82
2022/12/01 21:00:57;;;;;;;3.78;2.55;;;;;;;;;;10380942;28;20080;-80
2022/12/01 21:05:58;;;;;;;4.40;2.65;;;;;;;;;;10380678;28;20021;-76
2022/12/01 21:11:02;;;;;;;2.93;1.57;;;;;;;;;;10373243;28;20030;-79
2022/12/01 21:16:04;;;;;;;7.40;2.95;;;;;;;;;;10379570;28;20300;-80
2022/12/01 21:21:11;;;;;;;4.15;2.30;;;;;;;;;;10380243;28;20048;-81
2022/12/01 21:26:17;;;;;;;3.70;2.40;;;;;;;;;;10383119;28;20021;-82
2022/12/01 21:31:19;;;;;;;4.80;2.78;;;;;;;;;;10396405;28;20474;-82
2022/12/01 21:36:22;;;;;;;4.20;2.55;;;;;;;;;;10400049;28;20049;-80
2022/12/01 21:41:23;;;;;;;4.60;2.58;;;;;;;;;;10379433;28;20026;-78
2022/12/01 21:46:23;;;;;;;4.18;2.67;;;;;;;;;;10379950;28;20091;-78
2022/12/01 21:51:24;;;;;;;4.47;2.35;;;;;;;;;;10372433;28;20037;-82
2022/12/01 21:56:27;;;;;;;3.05;2.10;;;;;;;;;;10399460;28;20048;-76
2022/12/01 22:01:29;;;;;;;2.95;2.38;;;;;;;;;;10383571;28;20511;-82
2022/12/01 22:06:39;;;;;;;5.63;2.92;;;;;;;;;;10367652;28;20041;-75
2022/12/01 22:11:41;;;;;;;3.55;2.45;;;;;;;;;;10397070;28;20029;-73
2022/12/01 22:16:42;;;;;;;5.95;2.67;;;;;;;;;;10395689;28;20061;-74
2022/12/01 22:21:47;;;;;;;5.93;2.90;;;;;;;;;;10396834;28;20637;-78
2022/12/01 22:27:02;;;;;;;6.65;3.40;;;;;;;;;;10388675;28;20423;-78
2022/12/01 22:32:24;;;;;;;14.75;4.40;;;;;;;;;;10388770;28;20026;-81
2022/12/01 22:37:35;;;;;;;6.85;3.88;;;;;;;;;;10398059;28;20017;-78
2022/12/01 22:42:36;;;;;;;14.85;4.25;;;;;;;;;;10380533;28;20021;-80
2022/12/01 22:47:36;;;;;;;7.07;3.55;;;;;;;;;;10398640;28;20049;-80
2022/12/01 22:52:37;;;;;;;7.22;4.72;;;;;;;;;;10399894;28;20108;-77
2022/12/01 22:57:37;;;;;;;10.13;4.88;;;;;;;;;;10383752;28;20025;-81
2022/12/01 23:02:38;;;;;;;7.78;4.88;;;;;;;;;;10390234;28;20029;-81
2022/12/01 23:07:40;;;;;;;10.10;4.40;;;;;;;;;;10389259;28;20033;-76
2022/12/01 23:12:41;;;;;;;9.68;5.28;;;;;;;;;;10390134;28;20088;-81
2022/12/01 23:17:42;;;;;;;19.88;9.50;;;;;;;;;;10389742;28;20458;-82
2022/12/01 23:22:42;;;;;;;21.42;9.63;;;;;;;;;;10388213;28;20094;-78
2022/12/01 23:27:44;;;;;;;25.05;11.85;;;;;;;;;;10347580;28;20022;-78
2022/12/01 23:32:45;;;;;;;22.30;11.18;;;;;;;;;;10368951;28;20484;-82
2022/12/01 23:37:46;;;;;;;22.02;9.80;;;;;;;;;;10405377;28;20052;-80
2022/12/01 23:42:46;;;;;;;17.77;8.88;;;;;;;;;;10372007;28;20561;-82
2022/12/01 23:47:47;;;;;;;19.45;9.35;;;;;;;;;;10390449;28;20037;-82
2022/12/01 23:52:48;;;;;;;18.00;9.30;;;;;;;;;;10380249;28;20029;-84
2022/12/01 23:57:48;;;;;;;18.58;8.85;;;;;;;;;;10387744;28;20028;-84
